Time;durP1;ratioP1;P1;durP2;ratioP2;P2;SDS_P1;SDS_P2;PMS_P1;PMS_P2;Temp;Humidity;BMP_temperature;BMP_pressure;BME280_temperature;BME280_humidity;BME280_pressure;Samples;Min_cycle;Max_cycle;Signal;HPM_P1;HPM_P2
2022/12/17 13:06:42;;;;;;;1999.90;999.90;;;2.20;99.90;;;;;;5052885;28;21085;-67
2022/12/17 13:09:32;;;;;;;1999.90;999.90;;;2.30;99.90;;;;;;5047901;28;20485;-68
2022/12/17 13:12:16;;;;;;;1999.90;999.90;;;2.30;99.90;;;;;;5049396;28;21023;-66
2022/12/17 13:14:50;;;;;;;1999.90;999.90;;;2.30;99.90;;;;;;5051812;28;20486;-68
2022/12/17 13:17:35;;;;;;;1999.90;999.90;;;2.20;99.90;;;;;;5069196;28;20456;-68
2022/12/17 13:20:19;;;;;;;1999.90;999.90;;;2.20;99.90;;;;;;5055867;28;20474;-67
2022/12/17 13:22:50;;;;;;;1999.90;999.90;;;2.20;99.90;;;;;;5048251;28;20808;-68
2022/12/17 13:25:23;;;;;;;1999.90;999.90;;;2.10;99.90;;;;;;5047058;28;20430;-68
2022/12/17 13:27:50;;;;;;;1999.90;999.90;;;2.10;99.90;;;;;;5049515;28;20466;-68
2022/12/17 13:30:29;;;;;;;1999.90;999.90;;;2.00;99.90;;;;;;5051392;28;20450;-65
2022/12/17 13:33:17;;;;;;;1999.90;999.90;;;1.90;99.90;;;;;;5052053;28;20461;-66
2022/12/17 13:35:54;;;;;;;1999.90;999.90;;;1.90;99.90;;;;;;5043176;28;20470;-65
2022/12/17 13:38:27;;;;;;;1999.90;999.90;;;1.80;99.90;;;;;;5050277;28;20473;-66
2022/12/17 13:41:06;;;;;;;1999.90;999.90;;;1.90;99.90;;;;;;5050164;28;20442;-65
2022/12/17 13:43:38;;;;;;;1999.90;999.90;;;1.80;99.90;;;;;;5046013;28;21163;-66
2022/12/17 13:46:05;;;;;;;1999.90;999.90;;;1.80;99.90;;;;;;5048398;28;20438;-65
2022/12/17 13:48:33;;;;;;;1999.90;999.90;;;1.80;99.90;;;;;;5068188;28;20476;-67
2022/12/17 13:51:02;;;;;;;1999.90;999.90;;;1.80;99.90;;;;;;5068493;28;20448;-66
2022/12/17 13:53:32;;;;;;;1999.90;999.90;;;1.80;99.90;;;;;;5068602;28;20457;-66
2022/12/17 13:56:00;;;;;;;1999.90;999.90;;;1.70;99.90;;;;;;5057854;28;21157;-65
2022/12/17 13:58:29;;;;;;;1999.90;999.90;;;1.70;99.90;;;;;;5040924;28;20489;-65
2022/12/17 14:01:07;;;;;;;1999.90;999.90;;;1.70;99.90;;;;;;5050680;28;20450;-68
2022/12/17 14:03:35;;;;;;;1999.90;999.90;;;1.70;99.90;;;;;;5050931;28;20450;-65
2022/12/17 14:06:03;;;;;;;1999.90;999.90;;;1.60;99.90;;;;;;5050703;28;20438;-65
2022/12/17 14:08:33;;;;;;;1999.90;999.90;;;1.60;99.90;;;;;;5050280;28;20482;-65
2022/12/17 14:13:41;;;;;;;1999.90;999.90;;;1.60;99.90;;;;;;5048132;28;20453;-66
2022/12/17 14:16:08;;;;;;;1999.90;999.90;;;1.60;99.90;;;;;;5063225;28;20482;-66
2022/12/17 14:18:40;;;;;;;1999.90;999.90;;;1.60;99.90;;;;;;5058420;28;20473;-65
2022/12/17 14:21:09;;;;;;;1999.90;999.90;;;1.60;99.90;;;;;;5054570;28;20549;-66
2022/12/17 14:23:36;;;;;;;1999.90;999.90;;;1.50;99.90;;;;;;5054702;28;20445;-64
2022/12/17 14:26:03;;;;;;;1999.90;999.90;;;1.40;99.90;;;;;;5052264;28;20464;-66
2022/12/17 14:28:32;;;;;;;1999.90;999.90;;;1.40;99.90;;;;;;5052838;28;20472;-66
2022/12/17 14:31:04;;;;;;;1999.90;999.90;;;1.40;99.90;;;;;;5049587;28;20462;-66
2022/12/17 14:33:33;;;;;;;1999.90;999.90;;;1.40;99.90;;;;;;5053322;28;20464;-65
2022/12/17 14:36:05;;;;;;;1999.90;999.90;;;1.30;99.90;;;;;;5048596;28;20482;-65
2022/12/17 14:38:32;;;;;;;1999.90;999.90;;;1.30;99.90;;;;;;5046064;28;20494;-66
2022/12/17 14:42:24;;;;;;;1999.90;999.90;;;1.30;99.90;;;;;;5053554;28;20469;-67
2022/12/17 14:43:55;;;;;;;1999.90;999.90;;;1.20;99.90;;;;;;5066577;28;20528;-66
2022/12/17 14:46:22;;;;;;;1999.90;999.90;;;1.10;99.90;;;;;;5054565;28;20504;-66
2022/12/17 14:49:03;;;;;;;1999.90;999.90;;;1.10;99.90;;;;;;5075059;28;20481;-66
2022/12/17 14:51:34;;;;;;;1999.90;999.90;;;0.90;99.90;;;;;;5081988;28;20453;-66
2022/12/17 14:54:19;;;;;;;1999.90;999.90;;;0.80;99.90;;;;;;5072701;28;20462;-66
2022/12/17 14:56:48;;;;;;;1999.90;999.90;;;0.70;99.90;;;;;;5071789;28;20473;-66
2022/12/17 14:59:30;;;;;;;1999.90;999.90;;;0.70;99.90;;;;;;5067354;28;20494;-66
2022/12/17 15:01:57;;;;;;;1999.90;999.90;;;0.70;99.90;;;;;;5049715;28;20454;-65
2022/12/17 15:04:24;;;;;;;1999.90;999.90;;;0.50;99.90;;;;;;5053748;28;20449;-65
2022/12/17 15:06:54;;;;;;;1999.90;999.90;;;0.40;99.90;;;;;;5052123;28;20545;-66
2022/12/17 15:09:21;;;;;;;1999.90;999.90;;;0.30;99.90;;;;;;5052741;28;20490;-66
2022/12/17 15:11:48;;;;;;;1999.90;999.90;;;0.20;99.90;;;;;;5054095;28;20442;-66
2022/12/17 15:14:14;;;;;;;1999.90;999.90;;;0.10;99.90;;;;;;5059933;28;20467;-66
2022/12/17 15:16:41;;;;;;;1999.90;999.90;;;-0.20;99.90;;;;;;5059453;28;20479;-66
2022/12/17 15:19:08;;;;;;;1999.90;999.90;;;-0.40;99.90;;;;;;5052638;28;20497;-65
2022/12/17 15:21:35;;;;;;;1999.90;999.90;;;-0.50;99.90;;;;;;5066691;28;20819;-66
2022/12/17 15:24:03;;;;;;;1999.90;999.90;;;-0.70;99.90;;;;;;5072983;28;20445;-66
2022/12/17 15:26:30;;;;;;;1999.90;999.90;;;-0.80;99.90;;;;;;5072959;28;20452;-66
2022/12/17 15:28:57;;;;;;;1999.90;999.90;;;-1.10;99.90;;;;;;5065383;28;20486;-66
2022/12/17 15:31:23;;;;;;;1999.90;999.90;;;-1.20;99.90;;;;;;5051327;28;20465;-69
2022/12/17 15:33:50;;;;;;;1999.90;999.90;;;-1.30;99.90;;;;;;5056632;28;20458;-65
2022/12/17 15:36:17;;;;;;;1999.90;999.90;;;-1.30;99.90;;;;;;5050881;28;20490;-65
2022/12/17 15:38:45;;;;;;;1999.90;999.90;;;-1.40;99.90;;;;;;5048876;28;20490;-66
2022/12/17 15:43:57;;;;;;;1999.90;999.90;;;-1.70;99.90;;;;;;5049740;28;20535;-66
2022/12/17 15:46:24;;;;;;;1999.90;999.90;;;-1.90;99.90;;;;;;5059618;28;20438;-66
2022/12/17 15:48:50;;;;;;;1999.90;999.90;;;-1.90;99.90;;;;;;5052256;28;20473;-68
2022/12/17 15:51:19;;;;;;;1999.90;999.90;;;-2.00;99.90;;;;;;5052138;28;20441;-67
2022/12/17 15:53:47;;;;;;;1999.90;999.90;;;-2.00;99.90;;;;;;5051098;28;20474;-68
2022/12/17 15:56:20;;;;;;;1999.90;999.90;;;-2.10;99.90;;;;;;5049920;28;20541;-66
2022/12/17 15:58:47;;;;;;;1999.90;999.90;;;-2.10;99.90;;;;;;5054931;28;20479;-67
2022/12/17 16:01:14;;;;;;;1999.90;999.90;;;-2.20;99.90;;;;;;5049750;28;20443;-66
2022/12/17 16:03:40;;;;;;;1999.90;999.90;;;-2.30;99.90;;;;;;5049654;28;21170;-68
2022/12/17 16:06:07;;;;;;;1999.90;999.90;;;-2.40;99.90;;;;;;5056077;28;20469;-68
2022/12/17 16:08:34;;;;;;;1999.90;999.90;;;-2.50;99.90;;;;;;5049470;28;20997;-68
2022/12/17 16:11:05;;;;;;;1999.90;999.90;;;-2.60;99.90;;;;;;5050629;28;20454;-68
2022/12/17 16:13:33;;;;;;;1999.90;999.90;;;-2.60;99.90;;;;;;5050289;28;20461;-68
2022/12/17 16:16:00;;;;;;;1999.90;999.90;;;-2.70;99.90;;;;;;5050139;28;20474;-69
2022/12/17 16:18:26;;;;;;;1999.90;999.90;;;-2.80;99.90;;;;;;5049211;28;20486;-68
2022/12/17 16:20:53;;;;;;;1999.90;999.90;;;-2.90;99.90;;;;;;5059117;28;20437;-67
2022/12/17 16:23:20;;;;;;;1999.90;999.90;;;-2.90;99.90;;;;;;5072149;28;20445;-67
2022/12/17 16:25:55;;;;;;;1999.90;999.90;;;-3.00;99.90;;;;;;5064400;28;20458;-68
2022/12/17 16:28:22;;;;;;;1999.90;999.90;;;-3.00;99.90;;;;;;5058224;28;20472;-69
2022/12/17 16:30:59;;;;;;;1999.90;999.90;;;-3.20;99.90;;;;;;5048999;28;20827;-68
2022/12/17 16:33:26;;;;;;;1999.90;999.90;;;-3.20;99.90;;;;;;5058129;28;20453;-68
2022/12/17 16:35:53;;;;;;;1999.90;999.90;;;-3.20;99.90;;;;;;5053192;28;20482;-68
2022/12/17 16:38:20;;;;;;;1999.90;999.90;;;-3.40;99.90;;;;;;5061632;28;20468;-68
2022/12/17 16:40:47;;;;;;;1999.90;999.90;;;-3.40;99.90;;;;;;5062576;28;20462;-68
2022/12/17 16:43:14;;;;;;;1999.90;999.90;;;-3.40;99.90;;;;;;5049780;28;20446;-68
2022/12/17 16:45:48;;;;;;;1999.90;999.90;;;-3.40;99.90;;;;;;5050340;28;20442;-68
2022/12/17 16:48:16;;;;;;;1999.90;999.90;;;-3.40;99.90;;;;;;5052546;28;20992;-67
2022/12/17 16:50:43;;;;;;;1999.90;999.90;;;-3.50;99.90;;;;;;5054227;28;20454;-68
2022/12/17 16:53:10;;;;;;;1999.90;999.90;;;-3.50;99.90;;;;;;5064986;28;20462;-68
2022/12/17 16:55:40;;;;;;;1999.90;999.90;;;-3.50;99.90;;;;;;5051048;28;20475;-69
2022/12/17 16:58:07;;;;;;;1999.90;999.90;;;-3.40;99.90;;;;;;5051886;28;21059;-68
2022/12/17 17:00:34;;;;;;;1999.90;999.90;;;-3.50;99.90;;;;;;5047248;28;20469;-69
2022/12/17 17:03:01;;;;;;;1999.90;999.90;;;-3.40;99.90;;;;;;5047419;28;20470;-68
2022/12/17 17:05:31;;;;;;;1999.90;999.90;;;-3.40;99.90;;;;;;5058225;28;20537;-68
2022/12/17 17:07:58;;;;;;;1999.90;999.90;;;-3.50;99.90;;;;;;5051087;28;20470;-67
2022/12/17 17:10:25;;;;;;;1999.90;999.90;;;-3.50;99.90;;;;;;5047791;28;21011;-68
2022/12/17 17:12:52;;;;;;;1999.90;999.90;;;-3.50;99.90;;;;;;5057573;28;21097;-68
2022/12/17 17:15:18;;;;;;;1999.90;999.90;;;-3.70;99.90;;;;;;5047921;28;20449;-68
2022/12/17 17:17:45;;;;;;;1999.90;999.90;;;-3.80;99.90;;;;;;5049967;28;20552;-68
2022/12/17 17:20:12;;;;;;;1999.90;999.90;;;-3.90;99.90;;;;;;5049430;28;20469;-69
2022/12/17 17:22:40;;;;;;;1999.90;999.90;;;-4.00;99.90;;;;;;5049885;28;20449;-68
2022/12/17 17:25:08;;;;;;;1999.90;999.90;;;-4.10;99.90;;;;;;5042806;28;20565;-69
2022/12/17 17:27:34;;;;;;;1999.90;999.90;;;-4.10;99.90;;;;;;5047624;28;20547;-68
2022/12/17 17:30:01;;;;;;;1999.90;999.90;;;-4.20;99.90;;;;;;5042670;28;20477;-68
2022/12/17 17:32:28;;;;;;;1999.90;999.90;;;-4.30;99.90;;;;;;5047546;28;20460;-66
2022/12/17 17:34:55;;;;;;;1999.90;999.90;;;-4.30;99.90;;;;;;5052899;28;20473;-67
2022/12/17 17:37:21;;;;;;;1999.90;999.90;;;-4.30;99.90;;;;;;5060928;28;20503;-66
2022/12/17 17:39:49;;;;;;;1999.90;999.90;;;-4.20;99.90;;;;;;5052223;28;20478;-64
2022/12/17 17:42:16;;;;;;;1999.90;999.90;;;-4.20;99.90;;;;;;5045449;28;20466;-65
2022/12/17 17:44:43;;;;;;;1999.90;999.90;;;-4.20;99.90;;;;;;5044433;28;20467;-65
2022/12/17 17:47:10;;;;;;;1999.90;999.90;;;-4.30;99.90;;;;;;5047412;28;20454;-65
2022/12/17 17:49:36;;;;;;;1999.90;999.90;;;-4.20;99.90;;;;;;5039728;28;20489;-65
2022/12/17 17:52:03;;;;;;;1999.90;999.90;;;-4.20;99.90;;;;;;5044360;28;20461;-65
2022/12/17 17:54:30;;;;;;;1999.90;999.90;;;-3.80;99.90;;;;;;5051072;28;20458;-65
2022/12/17 17:56:58;;;;;;;1999.90;999.90;;;-4.30;99.90;;;;;;5057234;28;20487;-67
2022/12/17 17:59:25;;;;;;;1999.90;999.90;;;-4.30;99.90;;;;;;5061502;28;20480;-67
2022/12/17 18:01:52;;;;;;;1999.90;999.90;;;-4.20;99.90;;;;;;5055735;28;20835;-67
2022/12/17 18:04:22;;;;;;;1999.90;999.90;;;-4.30;99.90;;;;;;5049054;28;20461;-67
2022/12/17 18:06:49;;;;;;;1999.90;999.90;;;-4.30;99.90;;;;;;5055633;28;20472;-67
2022/12/17 18:09:16;;;;;;;1999.90;999.90;;;-4.30;99.90;;;;;;5060330;28;20517;-67
2022/12/17 18:11:43;;;;;;;1999.90;999.90;;;-4.40;99.90;;;;;;5054418;28;20458;-67
2022/12/17 18:14:11;;;;;;;1999.90;999.90;;;-4.40;99.90;;;;;;5051035;28;20460;-68
2022/12/17 18:16:40;;;;;;;1999.90;999.90;;;-4.50;99.90;;;;;;5056816;28;20496;-65
2022/12/17 18:19:10;;;;;;;1999.90;999.90;;;-4.70;99.90;;;;;;5061474;28;21036;-65
2022/12/17 18:21:37;;;;;;;1999.90;999.90;;;-4.80;99.90;;;;;;5057534;28;20462;-65
2022/12/17 18:24:06;;;;;;;1999.90;999.90;;;-4.70;99.90;;;;;;5050551;28;20457;-65
2022/12/17 18:26:36;;;;;;;1999.90;999.90;;;-4.60;99.90;;;;;;5052472;28;20477;-68
2022/12/17 18:29:08;;;;;;;1999.90;999.90;;;-4.60;99.90;;;;;;5057318;28;20600;-66
2022/12/17 18:31:36;;;;;;;1999.90;999.90;;;-4.70;99.90;;;;;;5059255;28;21381;-66
2022/12/17 18:34:05;;;;;;;1999.90;999.90;;;-4.70;99.90;;;;;;5052128;28;20864;-65
2022/12/17 18:36:34;;;;;;;1999.90;999.90;;;-4.70;99.90;;;;;;5058450;28;20476;-65
2022/12/17 18:39:04;;;;;;;1999.90;999.90;;;-4.70;99.90;;;;;;5047942;28;20490;-65
2022/12/17 18:44:16;;;;;;;1999.90;999.90;;;-4.80;99.90;;;;;;5047891;28;20453;-66
2022/12/17 18:46:45;;;;;;;1999.90;999.90;;;-4.80;99.90;;;;;;5050564;28;20446;-67
2022/12/17 18:49:13;;;;;;;1999.90;999.90;;;-4.70;99.90;;;;;;5055005;28;20467;-66
2022/12/17 18:51:42;;;;;;;1999.90;999.90;;;-4.80;99.90;;;;;;5053843;28;20466;-67
2022/12/17 18:54:13;;;;;;;1999.90;999.90;;;-4.80;99.90;;;;;;5050839;28;20458;-67
2022/12/17 18:56:41;;;;;;;1999.90;999.90;;;-4.80;99.90;;;;;;5050506;28;20482;-67
2022/12/17 18:59:08;;;;;;;1999.90;999.90;;;-4.80;99.90;;;;;;5056049;28;20488;-67
2022/12/17 19:01:37;;;;;;;1999.90;999.90;;;-4.90;99.90;;;;;;5057891;28;21010;-67
2022/12/17 19:04:07;;;;;;;1999.90;999.90;;;-4.90;99.90;;;;;;5050294;28;20458;-66
2022/12/17 19:06:36;;;;;;;1999.90;999.90;;;-4.90;99.90;;;;;;5050300;28;20455;-66
2022/12/17 19:09:03;;;;;;;1999.90;999.90;;;-4.80;99.90;;;;;;5063061;28;20482;-67
2022/12/17 19:11:30;;;;;;;1999.90;999.90;;;-4.90;99.90;;;;;;5058547;28;20457;-67
2022/12/17 19:13:57;;;;;;;1999.90;999.90;;;-5.00;99.90;;;;;;5051943;28;20469;-66
2022/12/17 19:16:26;;;;;;;1999.90;999.90;;;-5.00;99.90;;;;;;5058313;28;20819;-66
2022/12/17 19:18:55;;;;;;;1999.90;999.90;;;-5.10;99.90;;;;;;5058488;28;20490;-66
2022/12/17 19:21:24;;;;;;;1999.90;999.90;;;-5.10;99.90;;;;;;5060635;28;20453;-67
2022/12/17 19:23:56;;;;;;;1999.90;999.90;;;-5.10;99.90;;;;;;5051777;28;20458;-66
2022/12/17 19:26:23;;;;;;;1999.90;999.90;;;-5.10;99.90;;;;;;5050623;28;20454;-66
2022/12/17 19:28:52;;;;;;;1999.90;999.90;;;-5.00;99.90;;;;;;5050613;28;20997;-66
2022/12/17 19:31:21;;;;;;;1999.90;999.90;;;-5.10;99.90;;;;;;5061760;28;20541;-66
2022/12/17 19:33:48;;;;;;;1999.90;999.90;;;-5.20;99.90;;;;;;5055700;28;20458;-66
2022/12/17 19:36:16;;;;;;;1999.90;999.90;;;-5.30;99.90;;;;;;5049317;28;20485;-66
2022/12/17 19:38:45;;;;;;;1999.90;999.90;;;-5.50;99.90;;;;;;5049926;28;20482;-67
2022/12/17 19:41:14;;;;;;;1999.90;999.90;;;-5.70;99.90;;;;;;5061619;28;20462;-66
2022/12/17 19:43:42;;;;;;;1999.90;999.90;;;-5.70;99.90;;;;;;5059589;28;20659;-67
2022/12/17 19:46:11;;;;;;;1999.90;999.90;;;-5.80;99.90;;;;;;5048205;28;20454;-66
2022/12/17 19:48:39;;;;;;;1999.90;999.90;;;-5.80;99.90;;;;;;5054489;28;20474;-66
2022/12/17 19:51:08;;;;;;;1999.90;999.90;;;-5.70;99.90;;;;;;5055728;28;20978;-65
2022/12/17 19:53:37;;;;;;;1999.90;999.90;;;-5.70;99.90;;;;;;5055365;28;20472;-65
2022/12/17 19:56:13;;;;;;;1999.90;999.90;;;-5.70;99.90;;;;;;5045814;28;20463;-65
2022/12/17 19:58:40;;;;;;;1999.90;999.90;;;-5.70;99.90;;;;;;5049466;28;21015;-66
2022/12/17 20:01:09;;;;;;;1999.90;999.90;;;-5.80;99.90;;;;;;5051818;28;20465;-66
2022/12/17 20:03:37;;;;;;;1999.90;999.90;;;-5.80;99.90;;;;;;5056559;28;20830;-66
2022/12/17 20:06:05;;;;;;;1999.90;999.90;;;-5.70;99.90;;;;;;5052208;28;20446;-66
2022/12/17 20:08:33;;;;;;;1999.90;999.90;;;-5.80;99.90;;;;;;5049848;28;20478;-66
2022/12/17 20:11:01;;;;;;;1999.90;999.90;;;-5.70;99.90;;;;;;5060371;28;20831;-65
2022/12/17 20:13:30;;;;;;;1999.90;999.90;;;-5.70;99.90;;;;;;5052778;28;20462;-66
2022/12/17 20:16:00;;;;;;;1999.90;999.90;;;-5.80;99.90;;;;;;5048162;28;20458;-66
2022/12/17 20:18:27;;;;;;;1999.90;999.90;;;-5.70;99.90;;;;;;5051133;28;20497;-65
2022/12/17 20:21:01;;;;;;;1999.90;999.90;;;-5.70;99.90;;;;;;5057795;28;20465;-66
2022/12/17 20:23:28;;;;;;;1999.90;999.90;;;-5.70;99.90;;;;;;5043393;28;20461;-66
2022/12/17 20:26:01;;;;;;;1999.90;999.90;;;-5.90;99.90;;;;;;5048542;28;20458;-66
2022/12/17 20:28:30;;;;;;;1999.90;999.90;;;-6.00;99.90;;;;;;5054755;28;20470;-66
2022/12/17 20:30:56;;;;;;;1999.90;999.90;;;-6.10;99.90;;;;;;5061344;28;20457;-66
2022/12/17 20:33:23;;;;;;;1999.90;999.90;;;-6.20;99.90;;;;;;5047791;28;20454;-65
2022/12/17 20:35:50;;;;;;;1999.90;999.90;;;-6.30;99.90;;;;;;5036835;28;20459;-66
2022/12/17 20:38:17;;;;;;;1999.90;999.90;;;-6.20;99.90;;;;;;5042451;28;20493;-65
2022/12/17 20:40:43;;;;;;;1999.90;999.90;;;-6.10;99.90;;;;;;5049201;28;20493;-67
2022/12/17 20:43:10;;;;;;;1999.90;999.90;;;-6.10;99.90;;;;;;5049024;28;20545;-66
2022/12/17 20:45:38;;;;;;;1999.90;999.90;;;-6.20;99.90;;;;;;5044061;28;20470;-66
2022/12/17 20:48:05;;;;;;;1999.90;999.90;;;-6.20;99.90;;;;;;5039182;28;20869;-66
2022/12/17 20:50:32;;;;;;;1999.90;999.90;;;-6.10;99.90;;;;;;5051605;28;20480;-66
2022/12/17 20:52:59;;;;;;;1999.90;999.90;;;-6.20;99.90;;;;;;5050624;28;20519;-67
2022/12/17 20:55:26;;;;;;;1999.90;999.90;;;-6.40;99.90;;;;;;5043400;28;20459;-67
2022/12/17 20:57:53;;;;;;;1999.90;999.90;;;-6.40;99.90;;;;;;5036722;28;20514;-66
2022/12/17 21:00:19;;;;;;;1999.90;999.90;;;-6.30;99.90;;;;;;5037352;28;20463;-65
2022/12/17 21:02:48;;;;;;;1999.90;999.90;;;-6.20;99.90;;;;;;5048928;28;20489;-67
2022/12/17 21:05:16;;;;;;;1999.90;999.90;;;-6.20;99.90;;;;;;5038565;28;20465;-66
2022/12/17 21:07:43;;;;;;;1999.90;999.90;;;-6.10;99.90;;;;;;5040061;28;20508;-65
2022/12/17 21:10:10;;;;;;;1999.90;999.90;;;-6.10;99.90;;;;;;5049046;28;20465;-65
2022/12/17 21:15:18;;;;;;;1999.90;999.90;;;-6.40;99.90;;;;;;5037308;28;20958;-65
2022/12/17 21:17:45;;;;;;;1999.90;999.90;;;-6.30;99.90;;;;;;5042259;28;20493;-64
2022/12/17 21:20:13;;;;;;;1999.90;999.90;;;-6.40;99.90;;;;;;5052787;28;20462;-65
2022/12/17 21:22:40;;;;;;;1999.90;999.90;;;-6.40;99.90;;;;;;5047204;28;20454;-65
2022/12/17 21:25:08;;;;;;;1999.90;999.90;;;-6.40;99.90;;;;;;5040818;28;20469;-65
2022/12/17 21:27:35;;;;;;;1999.90;999.90;;;-6.40;99.90;;;;;;5053189;28;20451;-66
2022/12/17 21:30:02;;;;;;;1999.90;999.90;;;-6.50;99.90;;;;;;5053903;28;21151;-65
2022/12/17 21:32:29;;;;;;;1999.90;999.90;;;-6.50;99.90;;;;;;5045119;28;20833;-65
2022/12/17 21:34:55;;;;;;;1999.90;999.90;;;-6.50;99.90;;;;;;5041406;28;20461;-65
2022/12/17 21:37:24;;;;;;;1999.90;999.90;;;-6.50;99.90;;;;;;5052988;28;21034;-65
2022/12/17 21:39:50;;;;;;;1999.90;999.90;;;-6.50;99.90;;;;;;5053452;28;20478;-65
2022/12/17 21:45:01;;;;;;;1999.90;999.90;;;-6.50;99.90;;;;;;5067168;28;20526;-65
2022/12/17 21:47:28;;;;;;;1999.90;999.90;;;-6.40;99.90;;;;;;5051745;28;20454;-65
2022/12/17 21:49:55;;;;;;;1999.90;999.90;;;-6.40;99.90;;;;;;5069301;28;20449;-65
2022/12/17 21:52:21;;;;;;;1999.90;999.90;;;-6.50;99.90;;;;;;5074555;28;20452;-64
2022/12/17 21:54:50;;;;;;;1999.90;999.90;;;-6.50;99.90;;;;;;5051927;28;20470;-65
2022/12/17 21:57:16;;;;;;;1999.90;999.90;;;-6.50;99.90;;;;;;5050200;28;20486;-65
2022/12/17 21:59:43;;;;;;;1999.90;999.90;;;-6.70;99.90;;;;;;5045472;28;20486;-65
2022/12/17 22:02:10;;;;;;;1999.90;999.90;;;-6.60;99.90;;;;;;5044822;28;20470;-65
2022/12/17 22:04:37;;;;;;;1999.90;999.90;;;-6.70;99.90;;;;;;5046242;28;20469;-65
2022/12/17 22:07:04;;;;;;;1999.90;999.90;;;-6.70;99.90;;;;;;5046761;28;20473;-65
2022/12/17 22:09:30;;;;;;;1999.90;999.90;;;-6.60;99.90;;;;;;5050531;28;20485;-65
2022/12/17 22:14:41;;;;;;;1999.90;999.90;;;-6.50;99.90;;;;;;5039064;28;20476;-64
2022/12/17 22:17:08;;;;;;;1999.90;999.90;;;-6.50;99.90;;;;;;5048601;28;20994;-65
2022/12/17 22:19:34;;;;;;;1999.90;999.90;;;-6.50;99.90;;;;;;5050196;28;21183;-65
2022/12/17 22:22:01;;;;;;;1999.90;999.90;;;-6.50;99.90;;;;;;5049194;28;20481;-65
2022/12/17 22:24:28;;;;;;;1999.90;999.90;;;-6.50;99.90;;;;;;5046302;28;20462;-66
2022/12/17 22:26:58;;;;;;;1999.90;999.90;;;-6.50;99.90;;;;;;5048573;28;20462;-64
2022/12/17 22:34:56;;;;;;;1999.90;999.90;;;-6.70;99.90;;;;;;5047149;28;20827;-65
2022/12/17 22:37:23;;;;;;;1999.90;999.90;;;-6.90;99.90;;;;;;5046866;28;20489;-65
2022/12/17 22:39:49;;;;;;;1999.90;999.90;;;-7.00;99.90;;;;;;5048276;28;20482;-65
2022/12/17 22:45:03;;;;;;;1999.90;999.90;;;-7.00;99.90;;;;;;5048604;28;20473;-65
2022/12/17 22:47:30;;;;;;;1999.90;999.90;;;-6.90;99.90;;;;;;5046235;28;21058;-64
2022/12/17 22:49:57;;;;;;;1999.90;999.90;;;-6.90;99.90;;;;;;5042707;28;20473;-65
2022/12/17 22:52:23;;;;;;;1999.90;999.90;;;-6.90;99.90;;;;;;5050463;28;20465;-65
2022/12/17 22:54:50;;;;;;;1999.90;999.90;;;-6.90;99.90;;;;;;5049314;28;20473;-65
2022/12/17 22:57:17;;;;;;;1999.90;999.90;;;-6.90;99.90;;;;;;5044225;28;21009;-66
2022/12/17 22:59:44;;;;;;;1999.90;999.90;;;-6.90;99.90;;;;;;5047349;28;20994;-65
2022/12/17 23:02:12;;;;;;;1999.90;999.90;;;-6.90;99.90;;;;;;5050456;28;20470;-65
2022/12/17 23:04:39;;;;;;;1999.90;999.90;;;-7.00;99.90;;;;;;5056566;28;20462;-64
2022/12/17 23:07:05;;;;;;;1999.90;999.90;;;-7.00;99.90;;;;;;5060645;28;20466;-64
2022/12/17 23:09:32;;;;;;;1999.90;999.90;;;-7.10;99.90;;;;;;5062391;28;20473;-65
2022/12/17 23:12:49;;;;;;;1999.90;999.90;;;-7.30;99.90;;;;;;5046647;28;20464;-64
2022/12/17 23:14:46;;;;;;;1999.90;999.90;;;-7.40;99.90;;;;;;5046918;28;21045;-64
2022/12/17 23:17:14;;;;;;;1999.90;999.90;;;-7.30;99.90;;;;;;5055867;28;20513;-65
2022/12/17 23:19:41;;;;;;;1999.90;999.90;;;-7.40;99.90;;;;;;5063305;28;20504;-64
2022/12/17 23:22:08;;;;;;;1999.90;999.90;;;-7.40;99.90;;;;;;5061022;28;20830;-65
2022/12/17 23:24:35;;;;;;;1999.90;999.90;;;-7.30;99.90;;;;;;5048583;28;20459;-64
2022/12/17 23:27:01;;;;;;;1999.90;999.90;;;-7.40;99.90;;;;;;5054036;28;20849;-66
2022/12/17 23:29:28;;;;;;;1999.90;999.90;;;-7.40;99.90;;;;;;5063560;28;20504;-65
2022/12/17 23:31:55;;;;;;;1999.90;999.90;;;-7.70;99.90;;;;;;5060657;28;20457;-64
2022/12/17 23:34:23;;;;;;;1999.90;999.90;;;-7.70;99.90;;;;;;5060339;28;20453;-65
2022/12/17 23:36:50;;;;;;;1999.90;999.90;;;-7.60;99.90;;;;;;5042378;28;20955;-64
2022/12/17 23:39:18;;;;;;;1999.90;999.90;;;-7.60;99.90;;;;;;5056232;28;20494;-65
2022/12/17 23:41:44;;;;;;;1999.90;999.90;;;-7.50;99.90;;;;;;5055196;28;21021;-66
2022/12/17 23:44:11;;;;;;;1999.90;999.90;;;-7.40;99.90;;;;;;5059166;28;20470;-65
2022/12/17 23:46:38;;;;;;;1999.90;999.90;;;-7.50;99.90;;;;;;5054103;28;20474;-65
2022/12/17 23:49:05;;;;;;;1999.90;999.90;;;-7.40;99.90;;;;;;5043289;28;20498;-67
2022/12/17 23:51:34;;;;;;;1999.90;999.90;;;-7.40;99.90;;;;;;5041678;28;20524;-65
2022/12/17 23:54:01;;;;;;;1999.90;999.90;;;-7.50;99.90;;;;;;5046915;28;20462;-65
2022/12/17 23:56:28;;;;;;;1999.90;999.90;;;-7.60;99.90;;;;;;5042180;28;20467;-67
2022/12/17 23:58:57;;;;;;;1999.90;999.90;;;-7.70;99.90;;;;;;5039248;28;20859;-65
